Nearby METAR Reports

 

EGEO - Oban, United Kingdom
Distance from station: SSW 18mi, 30km
Updated: 15/07/2024 12:20
Few Clouds
Few Clouds
 Wind from NNW
Wind: NNW 6 mph , 9 km/h
Temperature: 16°C
Dew Point: 11°C
Humidity: 72%
Barometer: 1008 hPa
Clouds: Few Clouds
Visibility: 6 miles , 10 km
Cloud details: Few Clouds 975 m
2024/07/15 11:20 EGEO 151120Z 34005KT 9999 FEW032 16/11 Q1008
EGPU - Tiree, United Kingdom
Distance from station: WSW 64mi, 103km
Updated: 15/07/2024 12:20
Few Clouds
Few Clouds
 Wind from S
Wind: S 2 mph , 4 km/h
Temperature: 17°C
Dew Point: 12°C
Humidity: 73%
Barometer: 1009 hPa
Clouds: Few Clouds
Visibility: 6 miles , 10 km
Cloud details: Few Clouds 1219 m
2024/07/15 11:20 EGPU 151120Z 18002KT 9999 FEW040 17/12 Q1009
EGPF - Glasgow, United Kingdom
Distance from station: SSE 66mi, 107km
Updated: 15/07/2024 12:20
Clear
Clear
 Wind from SSW
Wind: SSW 7 mph , 11 km/h
Temperature: 21°C
Dew Point: 13°C
Humidity: 60%
Barometer: 1008 hPa
Clouds: Clear
Visibility: 6 miles , 10 km
2024/07/15 11:20 EGPF 151120Z AUTO 21006KT 180V250 9999 NCD 21/13 Q1008
 
EGPE - Inverness, United Kingdom
Distance from station: NE 71mi, 114km
Updated: 15/07/2024 12:20
Partly cloudy
Partly cloudy
 Wind from NE
Wind: NE 5 mph , 7 km/h
Temperature: 15°C
Dew Point: 12°C
Humidity: 82%
Barometer: 1008 hPa
Clouds: Partly cloudy
Visibility: 6 miles , 10 km
Cloud details: Few Clouds 122 m
Partly cloudy 274 m
2024/07/15 11:20 EGPE 151120Z 05004KT 9999 FEW004 SCT009 15/12 Q1008
EGPI - Islay/Port Ellen, United Kingdom
Distance from station: SSW 81mi, 131km
Updated: 15/07/2024 12:20
Partly cloudy
Partly cloudy
 Wind from S
Wind: S 7 mph , 11 km/h
Temperature: 16°C
Dew Point: 14°C
Humidity: 88%
Barometer: 1008 hPa
Clouds: Partly cloudy
Visibility: 6 miles , 10 km
Cloud details: Few Clouds 244 m
Partly cloudy 914 m
2024/07/15 11:20 EGPI 151120Z 17006KT 140V200 9999 FEW008 SCT030 16/14 Q1008
EGPN - Dundee/Riverside, United Kingdom
Distance from station: E 86mi, 138km
Updated: 15/07/2024 12:20
Few Clouds
Few Clouds
 Wind from ESE
Wind: ESE 5 mph , 7 km/h
Temperature: 15°C
Dew Point: 12°C
Humidity: 82%
Barometer: 1008 hPa
Clouds: Few Clouds
Visibility: 6 miles , 10 km
Cloud details: Few Clouds 1219 m
2024/07/15 11:20 EGPN 151120Z 11004KT 9999 FEW040 15/12 Q1008
 
EGPK - Prestwick, United Kingdom
Distance from station: SSE 88mi, 141km
Updated: 15/07/2024 12:20
Few Clouds
Few Clouds
 Wind from W
Wind: W 9 mph , 15 km/h
Temperature: 17°C
Dew Point: 13°C
Humidity: 77%
Barometer: 1008 hPa
Clouds: Few Clouds
Visibility: 6 miles , 10 km
Cloud details: Few Clouds 1311 m
2024/07/15 11:20 EGPK 151120Z 27008KT 9999 FEW043 17/13 Q1008
EGPH - Edinburgh, United Kingdom
Distance from station: SE 89mi, 143km
Updated: 15/07/2024 12:20
Clear
Clear
 Wind from NNE
Wind: NNE 7 mph , 11 km/h
Temperature: 18°C
Dew Point: 14°C
Humidity: 78%
Barometer: 1008 hPa
Summary: Clear
Visibility: greater than 7 miles , 10 km
2024/07/15 11:20 EGPH 151120Z 03006KT CAVOK 18/14 Q1008
EGQK - RAF Kinloss, United Kingdom
Distance from station: NE 90mi, 144km
Updated: 15/07/2024 12:20
Mostly cloudy
Mostly cloudy
 Wind from N
Wind: N 8 mph , 13 km/h
Temperature: 15°C
Dew Point: 11°C
Humidity: 77%
Barometer: 1008 hPa
Clouds: Mostly cloudy
Visibility: 6 miles , 10 km
Cloud details: Mostly cloudy 427 m
2024/07/15 11:20 EGQK 151120Z AUTO 01007KT 9999 BKN014/// 15/11 Q1008
 
EGEC - Campbeltown, United Kingdom
Distance from station: S 90mi, 145km
Updated: 15/07/2024 12:20
Clear
Clear
 Wind from SSE
Wind: SSE 7 mph , 11 km/h
Temperature: 18°C
Dew Point: 13°C
Humidity: 73%
Barometer: 1008 hPa
Summary: Clear
Visibility: greater than 7 miles , 10 km
2024/07/15 11:20 EGEC 151120Z 15006KT CAVOK 18/13 Q1008
EGQA - Tain Range, United Kingdom
Distance from station: NNE 91mi, 146km
Updated: 15/07/2024 12:20
Overcast
Overcast
 Wind from ESE
Wind: ESE 2 mph , 4 km/h
Temperature: 14°C
Dew Point: 11°C
Humidity: 82%
Barometer: 1008 hPa
Clouds: Overcast
Visibility: 6 miles , 10 km
Cloud details: Overcast 396 m
2024/07/15 11:20 EGQA 151120Z AUTO 11002KT 9999 OVC013/// 14/11 Q1008
EGQL - RAF Leuchars, United Kingdom
Distance from station: ESE 93mi, 149km
Updated: 15/07/2024 11:50
Mostly cloudy
Mostly cloudy
 Wind from E
Wind: E 9 mph , 15 km/h
Temperature: 15°C
Dew Point: 11°C
Humidity: 77%
Barometer: 1008 hPa
Clouds: Mostly cloudy
Visibility: 6 miles , 10 km
Cloud details: Mostly cloudy 274 m
2024/07/15 10:50 EGQL 151050Z 10008KT 9999 BKN009 15/11 Q1008 RMK GRN
 
EGPL - Benbecula, United Kingdom
Distance from station: WNW 96mi, 154km
Updated: 15/07/2024 12:20
Partly cloudy
Partly cloudy
 Wind from E
Wind: E 6 mph , 9 km/h
Temperature: 15°C
Dew Point: 11°C
Humidity: 77%
Barometer: 1009 hPa
Clouds: Partly cloudy
Visibility: 6 miles , 10 km
Cloud details: Few Clouds 366 m
Partly cloudy 1463 m
2024/07/15 11:20 EGPL 151120Z 08005KT 040V120 9999 FEW012 SCT048 15/11 Q1009
EGQS - RAF Lossiemouth, United Kingdom
Distance from station: NE 99mi, 160km
Updated: 15/07/2024 12:20
Mostly cloudy
Mostly cloudy
 Wind from NNW
Wind: NNW 8 mph , 13 km/h
Temperature: 15°C
Dew Point: 11°C
Humidity: 77%
Barometer: 1008 hPa
Clouds: Mostly cloudy
Visibility: 6 miles , 10 km
Cloud details: Few Clouds 396 m
Partly cloudy 549 m
Mostly cloudy 2743 m
2024/07/15 11:20 EGQS 151120Z 34007KT 9999 FEW013 SCT018 BKN090 15/11 Q1008 TEMPO FEW022 RMK WHT TEMPO BLU
EGPO - Stornoway, United Kingdom
Distance from station: NNW 111mi, 179km
Updated: 15/07/2024 12:20
Mostly cloudy
Mostly cloudy
 Wind from varies
Wind: varies 2 mph , 4 km/h
Temperature: 14°C
Dew Point: 9°C
Humidity: 72%
Barometer: 1009 hPa
Clouds: Mostly cloudy
Visibility: 6 miles , 10 km
Cloud details: Mostly cloudy 549 m
2024/07/15 11:20 EGPO 151120Z VRB02KT 9999 BKN018 14/09 Q1009
 
EGPD - Aberdeen/Dyce, United Kingdom
Distance from station: ENE 118mi, 190km
Updated: 15/07/2024 12:20
Mostly cloudy
Mostly cloudy
 Wind from ENE
Wind: ENE 3 mph , 6 km/h
Temperature: 15°C
Dew Point: 12°C
Humidity: 82%
Barometer: 1008 hPa
Clouds: Mostly cloudy
Visibility: 6 miles , 10 km
Cloud details: Mostly cloudy 396 m
2024/07/15 11:20 EGPD 151120Z 06003KT 010V130 9999 BKN013 15/12 Q1008
EGAE - Eglinton/Londond, United Kingdom
Distance from station: SSW 138mi, 222km
Updated: 15/07/2024 12:20
Few Clouds
Few Clouds
 Wind from NNE
Wind: NNE 8 mph , 13 km/h
Temperature: 19°C
Dew Point: 14°C
Humidity: 73%
Barometer: 1007 hPa
Clouds: Few Clouds
Visibility: 6 miles , 10 km
Cloud details: Few Clouds 488 m
2024/07/15 11:20 EGAE 151120Z 03007KT 9999 FEW016 19/14 Q1007
EGPC - Wick, United Kingdom
Distance from station: NNE 144mi, 232km
Updated: 15/07/2024 12:20
Mostly cloudy
Mostly cloudy
 Wind from NW
Wind: NW 10 mph , 17 km/h
Temperature: 12°C
Dew Point: 10°C
Humidity: 88%
Barometer: 1008 hPa
Clouds: Mostly cloudy
Visibility: 6 miles , 10 km
Cloud details: Mostly cloudy 274 m
2024/07/15 11:20 EGPC 151120Z 31009KT 9999 BKN009 12/10 Q1008

Metar display script from Saratoga-Weather.org